createdAt,value
2022-08-09T00:00:06.411Z,34.67
2022-08-09T00:00:33.984Z,34.68
2022-08-09T00:00:55.641Z,34.93
2022-08-09T00:01:17.448Z,35.04
2022-08-09T00:01:52.747Z,35.07
2022-08-09T00:02:18.103Z,34.23
2022-08-09T00:02:48.994Z,35.04
2022-08-09T00:04:06.322Z,34.77
2022-08-09T00:04:08.557Z,34.65
2022-08-09T00:04:36.605Z,34.64
2022-08-09T00:05:03.390Z,34.70
2022-08-09T00:06:19.383Z,34.80
2022-08-09T00:06:23.475Z,35.01
2022-08-09T00:06:45.450Z,35.06
2022-08-09T00:07:07.632Z,35.18
2022-08-09T00:07:44.703Z,35.25
2022-08-09T00:08:09.996Z,35.00
2022-08-09T00:08:33.238Z,35.00
2022-08-09T00:08:57.063Z,35.24
2022-08-09T00:09:20.937Z,35.05
2022-08-09T00:09:42.855Z,34.82
2022-08-09T00:10:06.525Z,35.37
2022-08-09T00:10:33.393Z,35.12
2022-08-09T00:10:58.429Z,35.13
2022-08-09T00:11:24.466Z,35.13
2022-08-09T00:12:03.588Z,35.52
2022-08-09T00:12:26.326Z,34.58
2022-08-09T00:12:57.182Z,34.99
2022-08-09T00:13:19.809Z,35.11
2022-08-09T00:13:41.630Z,35.19
2022-08-09T00:14:03.828Z,34.68
2022-08-09T00:15:14.675Z,34.92
2022-08-09T00:15:59.339Z,34.96
2022-08-09T00:16:26.568Z,35.26
2022-08-09T00:16:59.291Z,35.25
2022-08-09T00:18:05.036Z,35.28
2022-08-09T00:18:05.861Z,35.33
2022-08-09T00:18:35.943Z,35.06
2022-08-09T00:18:58.245Z,35.32
2022-08-09T00:19:20.097Z,35.39
2022-08-09T00:19:41.761Z,35.50
2022-08-09T00:20:12.240Z,35.34
2022-08-09T00:20:34.233Z,35.38
2022-08-09T00:20:55.998Z,35.33
2022-08-09T00:21:17.765Z,35.06
2022-08-09T00:21:43.158Z,35.43
2022-08-09T00:22:19.564Z,35.36
2022-08-09T00:22:41.515Z,35.40
2022-08-09T00:23:07.834Z,35.32
2022-08-09T00:23:57.368Z,35.29
2022-08-09T00:24:21.849Z,35.65
2022-08-09T00:24:45.905Z,35.43
2022-08-09T00:25:10.185Z,35.30
2022-08-09T00:25:35.462Z,35.91
2022-08-09T00:25:57.169Z,35.59
2022-08-09T00:26:19.391Z,35.22
2022-08-09T00:26:51.543Z,35.77
2022-08-09T00:27:15.293Z,35.38
2022-08-09T00:27:43.056Z,35.22
2022-08-09T00:28:06.633Z,35.56
2022-08-09T00:28:28.312Z,35.14
2022-08-09T00:28:52.595Z,35.10
2022-08-09T00:30:16.468Z,35.42
2022-08-09T00:30:24.882Z,35.14
2022-08-09T00:30:40.512Z,34.69
2022-08-09T00:31:50.639Z,34.77
2022-08-09T00:31:57.540Z,35.21
2022-08-09T00:32:22.733Z,35.12
2022-08-09T00:32:48.736Z,34.56
2022-08-09T00:33:12.620Z,34.61
2022-08-09T00:33:51.274Z,34.88
2022-08-09T00:34:13.549Z,34.91
2022-08-09T00:34:35.243Z,35.23
2022-08-09T00:34:58.751Z,35.05
2022-08-09T00:35:20.517Z,34.58
2022-08-09T00:35:43.786Z,34.86
2022-08-09T00:36:05.846Z,35.01
2022-08-09T00:36:30.826Z,34.82
2022-08-09T00:36:53.568Z,35.03
2022-08-09T00:37:15.276Z,35.18
2022-08-09T00:37:36.921Z,35.37
2022-08-09T00:37:58.663Z,35.49
2022-08-09T00:38:21.598Z,35.64
2022-08-09T00:38:43.859Z,35.64
2022-08-09T00:39:16.879Z,35.39
2022-08-09T00:40:09.028Z,35.33
2022-08-09T00:40:31.876Z,34.89
2022-08-09T00:40:53.792Z,34.96
2022-08-09T00:44:09.986Z,35.00
2022-08-09T00:44:10.202Z,35.31
2022-08-09T00:44:13.563Z,35.23
2022-08-09T00:44:15.388Z,34.66
2022-08-09T00:44:15.598Z,34.47
2022-08-09T00:44:47.615Z,35.36
2022-08-09T00:45:15.835Z,35.55
2022-08-09T00:45:38.039Z,35.50
2022-08-09T00:46:28.525Z,35.10
2022-08-09T00:47:04.458Z,35.81
2022-08-09T00:47:28.361Z,35.83
2022-08-09T00:47:57.777Z,35.65
2022-08-09T00:48:21.193Z,35.51
2022-08-09T00:48:49.374Z,35.74
2022-08-09T00:49:12.252Z,35.79
2022-08-09T00:49:36.622Z,35.63
2022-08-09T00:49:58.782Z,36.00
2022-08-09T00:50:20.497Z,35.96
2022-08-09T00:50:46.356Z,35.97
2022-08-09T00:51:16.409Z,36.44
2022-08-09T00:51:42.669Z,36.05
2022-08-09T00:52:17.973Z,35.95
2022-08-09T00:52:39.786Z,35.88
2022-08-09T00:53:08.867Z,36.08
2022-08-09T00:53:32.499Z,35.94
2022-08-09T00:53:58.915Z,35.80
2022-08-09T00:54:22.641Z,35.33
2022-08-09T00:54:53.605Z,35.35
2022-08-09T00:55:16.766Z,35.53
2022-08-09T00:56:04.475Z,35.76
2022-08-09T00:56:31.097Z,35.56
2022-08-09T00:56:52.706Z,35.78
2022-08-09T00:57:24.756Z,35.80
2022-08-09T00:57:59.368Z,36.11
2022-08-09T00:58:25.405Z,36.03
2022-08-09T00:58:51.495Z,36.00
2022-08-09T00:59:15.672Z,36.07
2022-08-09T00:59:53.605Z,36.05
2022-08-09T01:00:21.803Z,35.81
2022-08-09T01:00:44.910Z,36.39
2022-08-09T01:01:16.527Z,36.10
2022-08-09T01:01:44.913Z,36.58
2022-08-09T01:02:07.402Z,36.01
2022-08-09T01:02:31.124Z,35.82
2022-08-09T01:03:04.276Z,35.87
2022-08-09T01:03:40.686Z,36.04
2022-08-09T01:04:16.809Z,36.04
2022-08-09T01:04:49.851Z,35.99
2022-08-09T01:05:22.231Z,35.85
2022-08-09T01:05:53.444Z,36.49
2022-08-09T01:06:25.534Z,36.17
2022-08-09T01:07:13.829Z,36.23
2022-08-09T01:08:00.017Z,36.14
2022-08-09T01:08:34.835Z,35.80
2022-08-09T01:09:09.609Z,35.72
2022-08-09T01:09:40.094Z,36.03
2022-08-09T01:10:09.273Z,36.31
2022-08-09T01:10:37.211Z,36.46
2022-08-09T01:11:17.826Z,36.18
2022-08-09T01:11:53.244Z,36.16
2022-08-09T01:12:33.489Z,36.31
2022-08-09T01:13:03.685Z,36.41
2022-08-09T01:13:41.999Z,36.45
2022-08-09T01:14:23.934Z,36.24
2022-08-09T01:14:53.096Z,36.04
2022-08-09T01:15:19.148Z,36.46
2022-08-09T01:15:51.698Z,36.31
2022-08-09T01:16:20.708Z,36.24
2022-08-09T01:16:49.502Z,36.27
2022-08-09T01:17:19.270Z,36.40
2022-08-09T01:17:46.978Z,36.20
2022-08-09T01:18:14.427Z,36.19
2022-08-09T01:18:38.931Z,36.48
2022-08-09T01:19:08.123Z,36.14
2022-08-09T01:20:01.481Z,36.48
2022-08-09T01:20:35.877Z,36.60
2022-08-09T01:21:11.544Z,36.53
2022-08-09T01:21:50.879Z,36.38
2022-08-09T01:22:40.955Z,36.43
2022-08-09T01:24:02.107Z,36.17
2022-08-09T01:24:17.580Z,36.28
2022-08-09T01:24:52.210Z,36.52
2022-08-09T01:25:24.795Z,36.49
2022-08-09T01:26:03.402Z,36.69
2022-08-09T01:26:53.977Z,36.78
2022-08-09T01:27:20.838Z,36.74
2022-08-09T01:27:45.265Z,36.54
2022-08-09T01:28:14.642Z,36.45
2022-08-09T01:28:42.176Z,36.58
2022-08-09T01:29:09.032Z,36.68
2022-08-09T01:29:41.277Z,36.73
2022-08-09T01:30:28.673Z,36.51
2022-08-09T01:31:02.167Z,36.97
2022-08-09T01:32:31.997Z,36.89
2022-08-09T01:32:43.966Z,36.50
2022-08-09T01:32:59.996Z,36.94
2022-08-09T01:33:25.759Z,36.97
2022-08-09T01:33:49.159Z,36.51
2022-08-09T01:34:16.975Z,36.60
2022-08-09T01:34:44.687Z,36.95
2022-08-09T01:35:28.790Z,37.05
2022-08-09T01:36:03.255Z,36.85
2022-08-09T01:36:28.529Z,37.03
2022-08-09T01:36:51.528Z,36.94
2022-08-09T01:37:16.550Z,37.12
2022-08-09T01:38:07.987Z,37.11
2022-08-09T01:38:30.355Z,36.87
2022-08-09T01:38:53.801Z,36.65
2022-08-09T01:39:17.660Z,36.81
2022-08-09T01:39:41.380Z,36.93
2022-08-09T01:40:07.353Z,36.83
2022-08-09T01:40:31.934Z,37.27
2022-08-09T01:41:05.413Z,37.37
2022-08-09T01:41:30.161Z,36.75
2022-08-09T01:42:01.395Z,37.16
2022-08-09T01:42:27.244Z,37.37
2022-08-09T01:42:51.620Z,37.15
2022-08-09T01:43:14.646Z,37.36
2022-08-09T01:43:50.681Z,37.43
2022-08-09T01:44:16.519Z,37.05
2022-08-09T01:44:42.179Z,37.32
2022-08-09T01:45:05.746Z,36.89
2022-08-09T01:45:31.252Z,36.88
2022-08-09T01:45:54.363Z,37.15
2022-08-09T01:46:24.938Z,37.23
2022-08-09T01:46:51.371Z,37.18
2022-08-09T01:47:17.527Z,37.41
2022-08-09T01:47:44.902Z,37.19
2022-08-09T01:48:12.706Z,37.61
2022-08-09T01:48:39.640Z,37.49
2022-08-09T01:49:10.078Z,37.63
2022-08-09T01:49:38.791Z,37.69
2022-08-09T01:50:06.568Z,37.28
2022-08-09T01:50:37.175Z,37.10
2022-08-09T01:51:04.051Z,37.27
2022-08-09T01:51:27.980Z,37.68
2022-08-09T01:51:57.769Z,37.72
2022-08-09T01:52:20.659Z,37.10
2022-08-09T01:52:43.737Z,37.06
2022-08-09T01:53:19.395Z,37.51
2022-08-09T01:53:44.421Z,37.01
2022-08-09T01:54:13.737Z,37.13
2022-08-09T01:54:40.812Z,37.17
2022-08-09T01:55:03.988Z,37.25
2022-08-09T01:55:28.524Z,37.05
2022-08-09T01:55:56.222Z,37.22
2022-08-09T01:56:19.414Z,37.41
2022-08-09T01:56:51.365Z,37.49
2022-08-09T01:57:20.416Z,36.88
2022-08-09T01:57:46.231Z,37.23
2022-08-09T01:58:17.015Z,37.07
2022-08-09T01:58:40.181Z,37.17
2022-08-09T01:59:06.179Z,37.26
2022-08-09T01:59:32.491Z,37.04
2022-08-09T02:00:00.177Z,37.11
2022-08-09T02:00:36.244Z,36.98
2022-08-09T02:01:00.156Z,37.32
2022-08-09T02:01:58.000Z,37.28
2022-08-09T02:02:08.154Z,37.52
2022-08-09T02:02:33.174Z,37.31
2022-08-09T02:02:58.107Z,37.47
2022-08-09T02:03:21.537Z,37.36
2022-08-09T02:03:46.058Z,37.01
2022-08-09T02:04:10.611Z,37.41
2022-08-09T02:04:34.638Z,37.41
2022-08-09T02:05:04.058Z,37.17
2022-08-09T02:05:38.043Z,37.25
2022-08-09T02:06:11.869Z,37.25
2022-08-09T02:06:58.578Z,37.38
2022-08-09T02:08:39.193Z,37.25
2022-08-09T02:08:41.403Z,37.14
2022-08-09T02:08:58.525Z,37.00
2022-08-09T02:09:23.650Z,37.35
2022-08-09T02:09:59.444Z,37.58
2022-08-09T02:10:30.162Z,36.88
2022-08-09T02:10:54.039Z,37.51
2022-08-09T02:11:17.615Z,37.76
2022-08-09T02:11:42.659Z,37.52
2022-08-09T02:12:08.148Z,37.82
2022-08-09T02:12:33.472Z,37.68
2022-08-09T02:12:58.281Z,37.34
2022-08-09T02:13:26.036Z,37.48
2022-08-09T02:14:07.259Z,37.17
2022-08-09T02:14:31.371Z,37.63
2022-08-09T02:14:56.144Z,37.58
2022-08-09T02:15:19.910Z,37.62
2022-08-09T02:15:50.716Z,37.44
2022-08-09T02:16:13.892Z,37.14
2022-08-09T02:16:53.297Z,37.45
2022-08-09T02:18:01.595Z,37.31
2022-08-09T02:18:10.407Z,37.15
2022-08-09T02:18:35.060Z,37.00
2022-08-09T02:18:58.839Z,37.07
2022-08-09T02:19:21.173Z,37.00
2022-08-09T02:19:44.312Z,36.94
2022-08-09T02:20:08.655Z,36.65
2022-08-09T02:20:34.189Z,36.91
2022-08-09T02:21:02.958Z,36.81
2022-08-09T02:21:26.321Z,36.51
2022-08-09T02:21:55.708Z,36.59
2022-08-09T02:22:31.471Z,36.55
2022-08-09T02:23:03.520Z,36.56
2022-08-09T02:23:39.599Z,37.09
2022-08-09T02:24:06.052Z,36.63
2022-08-09T02:24:35.389Z,36.58
2022-08-09T02:25:01.735Z,36.74
2022-08-09T02:25:27.441Z,36.96
2022-08-09T02:25:55.895Z,36.70
2022-08-09T02:26:25.314Z,36.88
2022-08-09T02:26:52.559Z,36.77
2022-08-09T02:27:18.576Z,37.02
2022-08-09T02:28:00.550Z,37.13
2022-08-09T02:28:31.888Z,36.76
2022-08-09T02:28:56.257Z,37.12
2022-08-09T02:29:22.673Z,36.79
2022-08-09T02:29:48.571Z,36.77
2022-08-09T02:30:12.136Z,37.03
2022-08-09T02:30:41.730Z,36.92
2022-08-09T02:31:06.216Z,36.69
2022-08-09T02:31:34.045Z,36.70
2022-08-09T02:32:01.145Z,36.72
2022-08-09T02:32:26.838Z,36.23
2022-08-09T02:32:52.540Z,36.15
2022-08-09T02:33:18.551Z,36.86
2022-08-09T02:34:06.812Z,36.16
2022-08-09T02:34:40.660Z,36.69
2022-08-09T02:35:17.472Z,36.26
2022-08-09T02:36:02.710Z,36.31
2022-08-09T02:36:31.396Z,36.43
2022-08-09T02:36:55.168Z,36.55
2022-08-09T02:37:31.423Z,36.54
2022-08-09T02:37:59.094Z,36.80
2022-08-09T02:38:28.920Z,36.61
2022-08-09T02:38:55.618Z,36.64
2022-08-09T02:39:39.754Z,37.09
2022-08-09T02:40:10.389Z,37.00
2022-08-09T02:40:36.531Z,36.91
2022-08-09T02:41:03.220Z,36.58
2022-08-09T02:41:28.879Z,37.02
2022-08-09T02:41:54.454Z,36.97
2022-08-09T02:42:24.767Z,36.80
2022-08-09T02:42:51.181Z,36.97
2022-08-09T02:43:13.733Z,36.70
2022-08-09T02:43:42.535Z,36.84
2022-08-09T02:44:29.050Z,36.98
2022-08-09T02:44:57.027Z,36.90
2022-08-09T02:45:28.836Z,37.10
2022-08-09T02:45:53.941Z,37.21
2022-08-09T02:46:17.707Z,36.74
2022-08-09T02:46:41.040Z,36.74
2022-08-09T02:47:05.302Z,36.45
2022-08-09T02:47:34.000Z,36.64
2022-08-09T02:48:19.518Z,37.07
2022-08-09T02:48:57.650Z,37.41
2022-08-09T02:49:20.375Z,37.32
2022-08-09T02:50:06.137Z,36.86
2022-08-09T02:50:34.310Z,36.98
2022-08-09T02:50:58.843Z,37.10
2022-08-09T02:51:26.399Z,36.79
2022-08-09T02:51:53.665Z,37.27
2022-08-09T02:52:18.324Z,36.93
2022-08-09T02:52:44.254Z,36.91
2022-08-09T02:53:25.797Z,36.95
2022-08-09T02:54:00.395Z,36.81
2022-08-09T02:54:25.674Z,37.22
2022-08-09T02:54:54.537Z,37.27
2022-08-09T02:55:20.650Z,36.96
2022-08-09T02:55:57.261Z,37.63
2022-08-09T02:56:22.885Z,37.32
2022-08-09T02:56:51.177Z,37.27
2022-08-09T02:57:23.649Z,37.12
2022-08-09T02:58:00.201Z,37.07
2022-08-09T02:58:36.876Z,37.55
2022-08-09T02:59:03.347Z,37.39
2022-08-09T02:59:36.111Z,37.12
2022-08-09T03:00:21.117Z,37.08
2022-08-09T03:00:57.575Z,37.08
2022-08-09T03:01:22.040Z,37.43
2022-08-09T03:02:06.378Z,36.95
2022-08-09T03:02:31.567Z,37.34
2022-08-09T03:02:58.679Z,37.04
2022-08-09T03:04:12.530Z,37.07
2022-08-09T03:04:17.414Z,37.44
2022-08-09T03:04:43.189Z,37.72
2022-08-09T03:05:08.054Z,37.28
2022-08-09T03:05:41.196Z,37.57
2022-08-09T03:06:06.101Z,37.61
2022-08-09T03:06:30.546Z,37.02
2022-08-09T03:06:53.169Z,37.12
2022-08-09T03:07:17.515Z,37.22
2022-08-09T03:07:40.494Z,36.59
2022-08-09T03:08:18.297Z,37.04
2022-08-09T03:08:45.420Z,37.11
2022-08-09T03:09:08.572Z,37.39
2022-08-09T03:09:33.641Z,37.50
2022-08-09T03:10:00.524Z,37.14
2022-08-09T03:10:26.489Z,37.13
2022-08-09T03:10:51.065Z,37.39
2022-08-09T03:11:15.013Z,37.20
2022-08-09T03:12:05.562Z,37.54
2022-08-09T03:12:29.812Z,37.29
2022-08-09T03:12:54.677Z,37.65
2022-08-09T03:13:21.167Z,37.29
2022-08-09T03:13:59.396Z,37.60
2022-08-09T03:14:28.071Z,37.32
2022-08-09T03:14:51.601Z,37.42
2022-08-09T03:15:15.032Z,37.48
2022-08-09T03:15:40.453Z,37.60
2022-08-09T03:16:20.814Z,37.54
2022-08-09T03:16:45.064Z,37.70
2022-08-09T03:17:16.550Z,37.42
2022-08-09T03:17:44.094Z,37.82
2022-08-09T03:18:09.767Z,37.37
2022-08-09T03:18:35.437Z,37.61
2022-08-09T03:19:02.040Z,37.79
2022-08-09T03:19:52.795Z,37.57
2022-08-09T03:20:11.590Z,37.20
2022-08-09T03:20:33.927Z,37.87
2022-08-09T03:20:56.652Z,37.67
2022-08-09T03:21:20.334Z,37.39
2022-08-09T03:21:51.748Z,37.54
2022-08-09T03:22:24.895Z,37.61
2022-08-09T03:22:56.863Z,37.62
2022-08-09T03:23:24.247Z,37.61
2022-08-09T03:23:58.652Z,37.33
2022-08-09T03:24:42.189Z,37.35
2022-08-09T03:25:57.748Z,37.44
2022-08-09T03:25:58.957Z,37.36
2022-08-09T03:26:31.947Z,37.69
2022-08-09T03:26:54.598Z,37.68
2022-08-09T03:27:17.184Z,37.54
2022-08-09T03:27:48.000Z,37.46
2022-08-09T03:28:12.990Z,37.71
2022-08-09T03:28:37.979Z,37.49
2022-08-09T03:29:13.411Z,37.45
2022-08-09T03:29:58.026Z,37.26
2022-08-09T03:30:29.508Z,37.49
2022-08-09T03:30:55.674Z,37.69
2022-08-09T03:31:22.600Z,37.71
2022-08-09T03:31:59.530Z,37.63
2022-08-09T03:32:24.281Z,37.91
2022-08-09T03:32:49.722Z,37.87
2022-08-09T03:33:19.179Z,37.81
2022-08-09T03:33:54.963Z,37.65
2022-08-09T03:34:18.530Z,37.76
2022-08-09T03:34:41.474Z,37.54
2022-08-09T03:35:24.136Z,37.44
2022-08-09T03:36:13.003Z,37.63
2022-08-09T03:36:31.178Z,37.73
2022-08-09T03:36:59.803Z,37.65
2022-08-09T03:37:55.422Z,37.71
2022-08-09T03:38:06.916Z,37.93
2022-08-09T03:38:42.176Z,37.82
2022-08-09T03:39:05.137Z,37.83
2022-08-09T03:39:37.670Z,37.86
2022-08-09T03:40:01.075Z,37.70
2022-08-09T03:40:31.097Z,37.90
2022-08-09T03:40:53.162Z,37.74
2022-08-09T03:41:16.718Z,37.86
2022-08-09T03:41:45.730Z,38.15
2022-08-09T03:42:10.130Z,37.87
2022-08-09T03:42:32.188Z,38.14
2022-08-09T03:42:55.554Z,37.98
2022-08-09T03:43:19.554Z,38.00
2022-08-09T03:43:42.448Z,38.25
2022-08-09T03:44:08.978Z,37.98
2022-08-09T03:44:31.999Z,37.97
2022-08-09T03:44:53.781Z,38.37
2022-08-09T03:46:03.219Z,38.24
2022-08-09T03:46:05.422Z,38.24
2022-08-09T03:46:41.249Z,38.20
2022-08-09T03:47:04.488Z,38.02
2022-08-09T03:47:28.903Z,38.13
2022-08-09T03:47:58.295Z,38.30
2022-08-09T03:48:30.578Z,38.40
2022-08-09T03:48:55.050Z,38.49
2022-08-09T03:49:19.125Z,37.93
2022-08-09T03:49:58.416Z,38.50
2022-08-09T03:50:28.008Z,38.33
2022-08-09T03:50:54.967Z,38.54
2022-08-09T03:51:57.432Z,38.18
2022-08-09T03:52:04.434Z,38.19
2022-08-09T03:52:28.849Z,38.30
2022-08-09T03:52:51.841Z,38.60
2022-08-09T03:53:15.191Z,38.49
2022-08-09T03:53:39.096Z,38.49
2022-08-09T03:54:01.729Z,38.37
2022-08-09T03:54:29.976Z,38.29
2022-08-09T03:54:56.646Z,38.36
2022-08-09T03:55:19.752Z,38.62
2022-08-09T03:55:44.045Z,38.55
2022-08-09T03:56:07.020Z,38.52
2022-08-09T03:56:28.904Z,38.12
2022-08-09T03:56:52.229Z,38.63
2022-08-09T03:57:20.486Z,38.65
2022-08-09T03:57:44.607Z,38.63
2022-08-09T03:58:27.059Z,38.50
2022-08-09T03:58:50.209Z,38.22
2022-08-09T03:59:13.647Z,38.52
2022-08-09T03:59:52.928Z,38.40
2022-08-09T04:00:18.214Z,38.09
2022-08-09T04:00:41.768Z,38.38
2022-08-09T04:01:03.895Z,38.16
2022-08-09T04:01:28.081Z,38.83
2022-08-09T04:01:50.960Z,38.52
2022-08-09T04:02:14.383Z,38.34
2022-08-09T04:02:37.525Z,38.63
2022-08-09T04:03:08.345Z,38.44
2022-08-09T04:03:45.802Z,38.56
2022-08-09T04:04:14.836Z,38.46
2022-08-09T04:04:38.992Z,38.77
2022-08-09T04:05:06.479Z,38.98
2022-08-09T04:05:40.545Z,38.67
2022-08-09T04:06:04.637Z,38.40
2022-08-09T04:06:26.953Z,38.77
2022-08-09T04:06:50.009Z,38.65
2022-08-09T04:07:11.885Z,38.74
2022-08-09T04:07:53.229Z,39.06
2022-08-09T04:08:16.779Z,39.13
2022-08-09T04:08:38.791Z,39.18
2022-08-09T04:09:03.469Z,38.92
2022-08-09T04:09:47.676Z,39.46
2022-08-09T04:10:12.007Z,39.88
2022-08-09T04:10:33.853Z,39.35
2022-08-09T04:10:55.802Z,39.32
2022-08-09T04:11:24.303Z,39.64
2022-08-09T04:11:59.374Z,39.31
2022-08-09T04:12:40.072Z,39.52
2022-08-09T04:13:09.444Z,39.73
2022-08-09T04:14:36.766Z,39.54
2022-08-09T04:14:54.298Z,39.04
2022-08-09T04:15:02.085Z,39.02
2022-08-09T04:16:17.219Z,38.79
2022-08-09T04:16:19.509Z,38.89
2022-08-09T04:16:42.764Z,38.59
2022-08-09T04:17:05.473Z,38.88
2022-08-09T04:17:27.191Z,39.17
2022-08-09T04:17:51.312Z,38.84
2022-08-09T04:18:18.024Z,39.10
2022-08-09T04:18:41.733Z,39.06
2022-08-09T04:19:03.444Z,38.97
2022-08-09T04:19:51.254Z,39.13
2022-08-09T04:20:16.806Z,39.28
2022-08-09T04:20:38.604Z,39.35
2022-08-09T04:21:01.616Z,39.06
2022-08-09T04:21:25.604Z,39.48
2022-08-09T04:21:47.301Z,39.37
2022-08-09T04:22:11.901Z,39.14
2022-08-09T04:22:35.385Z,39.71
2022-08-09T04:23:03.892Z,40.13
2022-08-09T04:23:32.213Z,39.77
2022-08-09T04:23:57.576Z,39.49
2022-08-09T04:24:20.909Z,39.79
2022-08-09T04:24:48.529Z,39.83
2022-08-09T04:25:10.506Z,39.54
2022-08-09T04:25:32.803Z,39.59
2022-08-09T04:25:57.293Z,39.46
2022-08-09T04:26:18.959Z,39.87
2022-08-09T04:26:45.109Z,39.81
2022-08-09T04:27:06.949Z,39.89
2022-08-09T04:27:30.735Z,39.72
2022-08-09T04:28:02.530Z,39.42
2022-08-09T04:28:33.042Z,39.82
2022-08-09T04:29:03.706Z,39.37
2022-08-09T04:29:32.599Z,39.48
2022-08-09T04:29:54.516Z,39.69
2022-08-09T04:30:20.665Z,40.04
2022-08-09T04:30:45.067Z,39.68
2022-08-09T04:31:09.175Z,39.91
2022-08-09T04:31:37.691Z,39.75
2022-08-09T04:32:09.204Z,39.87
2022-08-09T04:32:37.212Z,39.61
2022-08-09T04:33:00.339Z,39.54
2022-08-09T04:33:22.964Z,39.95
2022-08-09T04:33:56.579Z,40.11
2022-08-09T04:34:30.687Z,39.95
2022-08-09T04:34:54.437Z,39.92
2022-08-09T04:35:21.608Z,39.62
2022-08-09T04:35:44.646Z,39.53
2022-08-09T04:36:06.891Z,39.61
2022-08-09T04:36:30.722Z,39.59
2022-08-09T04:36:52.566Z,39.55
2022-08-09T04:37:16.027Z,39.72
2022-08-09T04:37:45.538Z,39.95
2022-08-09T04:38:08.295Z,39.65
2022-08-09T04:38:30.934Z,40.31
2022-08-09T04:38:56.499Z,39.77
2022-08-09T04:39:18.229Z,40.28
2022-08-09T04:39:41.008Z,40.08
2022-08-09T04:40:03.268Z,39.72
2022-08-09T04:40:46.323Z,39.85
2022-08-09T04:41:09.812Z,39.88
2022-08-09T04:41:43.464Z,39.84
2022-08-09T04:42:09.289Z,40.09
2022-08-09T04:42:31.722Z,39.89
2022-08-09T04:42:57.178Z,39.99
2022-08-09T04:43:20.224Z,39.63
2022-08-09T04:43:53.906Z,39.94
2022-08-09T04:44:27.468Z,39.72
2022-08-09T04:44:49.591Z,39.61
2022-08-09T04:45:16.411Z,39.53
2022-08-09T04:45:54.045Z,39.72
2022-08-09T04:46:36.659Z,40.30
2022-08-09T04:47:04.528Z,40.14
2022-08-09T04:47:45.123Z,40.24
2022-08-09T04:48:12.608Z,39.67
2022-08-09T04:48:35.221Z,40.31
2022-08-09T04:48:57.615Z,40.14
2022-08-09T04:49:22.202Z,40.45
2022-08-09T04:50:02.941Z,40.12
2022-08-09T04:50:24.600Z,39.75
2022-08-09T04:50:55.486Z,40.06
2022-08-09T04:51:19.152Z,40.11
2022-08-09T04:51:42.931Z,39.93
2022-08-09T04:52:05.219Z,39.54
2022-08-09T04:52:29.511Z,39.94
2022-08-09T04:52:52.144Z,39.83
2022-08-09T04:53:15.376Z,40.04
2022-08-09T04:53:37.612Z,39.78
2022-08-09T04:53:59.453Z,39.91
2022-08-09T04:54:21.119Z,40.04
2022-08-09T04:54:44.880Z,39.75
2022-08-09T04:55:13.174Z,40.13
2022-08-09T04:55:41.072Z,39.63
2022-08-09T04:56:14.419Z,40.22
2022-08-09T04:56:42.665Z,39.74
2022-08-09T04:57:05.509Z,39.62
2022-08-09T04:57:58.481Z,39.53
2022-08-09T04:58:14.451Z,39.92
2022-08-09T04:58:36.224Z,39.55
2022-08-09T04:58:58.026Z,39.61
2022-08-09T04:59:21.104Z,39.69
2022-08-09T04:59:45.753Z,39.88
2022-08-09T05:00:14.162Z,40.10
2022-08-09T05:00:38.467Z,39.54
2022-08-09T05:01:05.480Z,39.40
2022-08-09T05:01:39.195Z,39.62
2022-08-09T05:02:02.878Z,39.48
2022-08-09T05:02:27.199Z,39.52
2022-08-09T05:02:52.626Z,39.84
2022-08-09T05:03:40.524Z,39.72
2022-08-09T05:03:58.755Z,39.44
2022-08-09T05:04:30.943Z,39.04
2022-08-09T05:04:55.494Z,39.10
2022-08-09T05:05:18.895Z,38.63
2022-08-09T05:06:06.603Z,38.56
2022-08-09T05:06:35.311Z,39.12
2022-08-09T05:06:58.340Z,39.53
2022-08-09T05:07:20.192Z,39.22
2022-08-09T05:07:42.957Z,38.79
2022-08-09T05:08:08.291Z,39.47
2022-08-09T05:08:30.061Z,39.34
2022-08-09T05:08:51.770Z,39.38
2022-08-09T05:09:14.474Z,39.25
2022-08-09T05:09:45.309Z,39.34
2022-08-09T05:10:13.014Z,38.55
2022-08-09T05:10:36.770Z,38.49
2022-08-09T05:10:58.727Z,38.67
2022-08-09T05:11:26.232Z,39.24
2022-08-09T05:11:53.915Z,39.09
2022-08-09T05:12:21.201Z,38.95
2022-08-09T05:12:45.116Z,39.39
2022-08-09T05:13:07.130Z,39.11
2022-08-09T05:13:33.908Z,39.00
2022-08-09T05:14:00.318Z,38.82
2022-08-09T05:14:22.053Z,38.93
2022-08-09T05:14:50.926Z,38.86
2022-08-09T05:15:38.310Z,38.31
2022-08-09T05:15:56.526Z,38.34
2022-08-09T05:16:19.720Z,38.88
2022-08-09T05:16:58.967Z,39.14
2022-08-09T05:18:39.482Z,38.79
2022-08-09T05:18:39.731Z,38.41
2022-08-09T05:18:57.743Z,38.90
2022-08-09T05:19:24.378Z,38.81
2022-08-09T05:19:48.917Z,39.13
2022-08-09T05:20:19.077Z,39.35
2022-08-09T05:20:40.816Z,38.98
2022-08-09T05:21:03.270Z,38.87
2022-08-09T05:21:46.716Z,38.71
2022-08-09T05:22:33.513Z,38.98
2022-08-09T05:23:53.964Z,38.88
2022-08-09T05:23:55.528Z,38.25
2022-08-09T05:24:21.142Z,38.81
2022-08-09T05:24:47.627Z,38.50
2022-08-09T05:25:09.731Z,38.31
2022-08-09T05:25:32.789Z,38.20
2022-08-09T05:25:54.466Z,37.66
2022-08-09T05:26:35.907Z,37.78
2022-08-09T05:27:00.246Z,37.68
2022-08-09T05:27:22.085Z,37.61
2022-08-09T05:27:45.486Z,38.07
2022-08-09T05:28:08.823Z,37.82
2022-08-09T05:28:31.658Z,38.01
2022-08-09T05:28:53.966Z,37.74
2022-08-09T05:29:21.571Z,37.83
2022-08-09T05:29:44.338Z,38.00
2022-08-09T05:30:12.075Z,38.18
2022-08-09T05:30:36.481Z,38.11
2022-08-09T05:30:58.271Z,38.06
2022-08-09T05:31:39.837Z,38.06
2022-08-09T05:32:02.793Z,38.82
2022-08-09T05:32:30.084Z,38.40
2022-08-09T05:32:53.176Z,38.36
2022-08-09T05:33:15.322Z,38.09
2022-08-09T05:33:42.609Z,38.33
2022-08-09T05:34:04.378Z,38.05
2022-08-09T05:34:31.156Z,37.46
2022-08-09T05:34:53.693Z,37.40
2022-08-09T05:35:16.373Z,37.52
2022-08-09T05:35:38.961Z,37.88
2022-08-09T05:36:08.863Z,37.76
2022-08-09T05:36:31.530Z,37.84
2022-08-09T05:36:56.354Z,37.54
2022-08-09T05:37:18.371Z,37.63
2022-08-09T05:37:47.832Z,38.11
2022-08-09T05:38:12.960Z,37.89
2022-08-09T05:38:46.061Z,37.67
2022-08-09T05:39:08.701Z,37.47
2022-08-09T05:39:36.524Z,37.94
2022-08-09T05:40:06.719Z,37.54
2022-08-09T05:40:28.730Z,37.78
2022-08-09T05:40:50.741Z,37.94
2022-08-09T05:41:12.952Z,37.81
2022-08-09T05:41:35.645Z,37.37
2022-08-09T05:42:01.603Z,37.52
2022-08-09T05:42:28.137Z,37.73
2022-08-09T05:42:50.527Z,37.83
2022-08-09T05:43:13.346Z,37.70
2022-08-09T05:43:38.796Z,37.88
2022-08-09T05:44:06.749Z,37.87
2022-08-09T05:44:32.293Z,38.07
2022-08-09T05:44:56.520Z,38.05
2022-08-09T05:45:19.706Z,37.57
2022-08-09T05:45:55.745Z,37.36
2022-08-09T05:46:18.964Z,37.55
2022-08-09T05:46:41.649Z,37.93
2022-08-09T05:47:04.866Z,37.91
2022-08-09T05:47:30.158Z,37.80
2022-08-09T05:47:56.807Z,37.67
2022-08-09T05:48:22.446Z,37.60
2022-08-09T05:48:58.850Z,37.82
2022-08-09T05:50:23.904Z,37.31
2022-08-09T05:50:24.325Z,37.69
2022-08-09T05:50:51.013Z,37.26
2022-08-09T05:51:41.659Z,36.82
2022-08-09T05:52:08.318Z,37.14
2022-08-09T05:52:31.635Z,36.94
2022-08-09T05:52:55.099Z,37.29
2022-08-09T05:53:21.728Z,36.99
2022-08-09T05:53:57.422Z,36.87
2022-08-09T05:54:20.005Z,37.27
2022-08-09T05:54:41.718Z,37.10
2022-08-09T05:55:07.343Z,36.87
2022-08-09T05:55:31.729Z,37.36
2022-08-09T05:55:53.529Z,37.03
2022-08-09T05:56:16.280Z,37.37
2022-08-09T05:56:39.100Z,36.86
2022-08-09T05:57:19.115Z,37.14
2022-08-09T05:57:55.917Z,36.94
2022-08-09T05:58:18.976Z,37.01
2022-08-09T05:58:41.606Z,37.07
2022-08-09T05:59:03.816Z,36.81
2022-08-09T05:59:25.670Z,37.05
2022-08-09T05:59:47.599Z,37.14
2022-08-09T06:00:13.075Z,37.11
2022-08-09T06:00:36.181Z,37.29
2022-08-09T06:00:58.843Z,37.04
2022-08-09T06:01:21.521Z,36.80
2022-08-09T06:01:43.473Z,36.57
2022-08-09T06:02:05.254Z,36.49
2022-08-09T06:02:27.026Z,36.67
2022-08-09T06:02:54.275Z,37.06
2022-08-09T06:03:20.053Z,36.90
2022-08-09T06:03:54.475Z,36.91
2022-08-09T06:04:23.411Z,36.81
2022-08-09T06:04:46.009Z,37.35
2022-08-09T06:05:09.021Z,37.03
2022-08-09T06:05:56.913Z,37.96
2022-08-09T06:06:16.234Z,38.06
2022-08-09T06:06:37.985Z,37.71
2022-08-09T06:07:00.793Z,37.28
2022-08-09T06:07:22.905Z,37.00
2022-08-09T06:07:49.576Z,37.20
2022-08-09T06:08:27.850Z,36.97